Dacula, GA (30019)

2:24 PM EDT on April 26, 2015 (GMT -0400)
Dacula, GA | | Change Station
CLOSE
Current Station
Personal Weather Station
Location: Dacula, GA
Elevation: 1007 ft
Nearby Weather Stations

Elev 1007 ft 33.96 °N, 83.86 °W | Updated 46 seconds ago

Mostly Cloudy
Mostly Cloudy
83.1 °F
Feels Like 83 °F
N
2.2
Wind Variable Wind from SE
Gusts 7.6 mph

Today
High -- | Low -- °F
--% Chance of Precip.
Yesterday
High -- | Low -- °F
Precip. -- in
6:51 AM 8:15 PM
First Quarter, 57% visible
Pressure 29.68 in
Visibility 10.0 miles
Clouds Scattered Clouds 5000 ft
Scattered Clouds 7000 ft
Heat Index 83 °F
Dew Point 59 °F
Humidity 44%
Rainfall 0.00 in
Snow Depth Not available.
UV 9 out of 12
Pollen 10.20 out of 12
Air Quality Not available.
Flu Activity Sporadic
METAR KWDR 261815Z AUTO 30016G21KT 10SM SCT050 SCT070 28/16 A2968 RMK AO1

More Conditions Fewer Conditions

Pressure 29.68 in
Visibility 10.0 miles
Clouds Scattered Clouds 5000 ft
Scattered Clouds 7000 ft
Heat Index 83 °F
Dew Point 59 °F
Humidity 44%
Rainfall 0.00 in
Snow Depth Not available.
UV 9 out of 12
Pollen 10.20 out of 12
Air Quality Not available.
Flu Activity Sporadic
METAR KWDR 261815Z AUTO 30016G21KT 10SM SCT050 SCT070 28/16 A2968 RMK AO1

More Conditions Fewer Conditions

The full scope of the disaster following a powerful 7.8-magnitude earthquake in Nepal may not come into view for days, but global charities are already sending emergency aid. Click to see how you can help.

10-Day Weather Forecast

Almanac

Astronomy

Apr. 26, 2015 Rise Set
Actual Time
Civil Twilight
Nautical Twilight
Astronomical Twilight
Moon
Length of Visible Light
Length of Day
Tomorrow will be .
, % of the Moon is Illuminated

Today's Extremes

State Highs State Lows

Community

WunderPhotos

Upload Photos

1,817,082 photos uploaded!

WunderBlogs® & News

Nearby

Air Quality

  Air Quality AQ Index Pollutant
Not available.

Snow Depth

Station Depth Elevation

Earthquake Activity

City Distance Mag. Time & Date
Minimum magnitude displayed is 2.5.

Coastal Water Temperatures

Place Temperature

Stations

Nearby Weather Stations

Station Location Temp. Windchill Dew Point Humidity Wind Precip. Elev Updated Type